Time;durP1;ratioP1;P1;durP2;ratioP2;P2;SDS_P1;SDS_P2;PMS_P1;PMS_P2;Temp;Humidity;BMP_temperature;BMP_pressure;BME280_temperature;BME280_humidity;BME280_pressure;Samples;Min_cycle;Max_cycle;Signal;HPM_P1;HPM_P2
2022/05/20 00:01:36;;;;;;;35.75;26.83;;;16.80;99.90;;;;;;5097213;28;20176;-71
2022/05/20 00:04:02;;;;;;;30.67;22.35;;;16.70;99.90;;;;;;5115214;28;20215;-71
2022/05/20 00:06:27;;;;;;;33.33;24.38;;;16.80;99.90;;;;;;5096868;28;20226;-71
2022/05/20 00:08:54;;;;;;;28.17;22.30;;;16.80;99.90;;;;;;5115037;28;20209;-72
2022/05/20 00:11:20;;;;;;;33.70;25.58;;;16.80;99.90;;;;;;5096519;28;20641;-71
2022/05/20 00:13:46;;;;;;;36.53;27.13;;;16.80;99.90;;;;;;5114946;28;20653;-71
2022/05/20 00:16:13;;;;;;;39.60;29.02;;;16.80;99.90;;;;;;5096682;28;20179;-71
2022/05/20 00:18:39;;;;;;;41.50;29.50;;;16.80;99.90;;;;;;5096414;28;20196;-71
2022/05/20 00:21:05;;;;;;;45.17;30.65;;;16.70;99.90;;;;;;5115080;28;20181;-71
2022/05/20 00:23:32;;;;;;;41.10;29.55;;;16.70;99.90;;;;;;5114707;28;20213;-71
2022/05/20 00:25:57;;;;;;;43.13;30.02;;;16.70;99.90;;;;;;5114589;28;20183;-71
2022/05/20 00:28:26;;;;;;;37.78;28.00;;;16.60;99.90;;;;;;5114765;28;20587;-71
2022/05/20 00:31:05;;;;;;;38.40;26.95;;;16.60;99.90;;;;;;5096318;28;20183;-71
2022/05/20 00:33:31;;;;;;;35.88;25.83;;;16.50;99.90;;;;;;5096463;28;20704;-71
2022/05/20 00:35:57;;;;;;;37.10;27.52;;;16.50;99.90;;;;;;5114825;28;20168;-71
2022/05/20 00:38:24;;;;;;;33.95;25.70;;;16.40;99.90;;;;;;5114395;28;20223;-71
2022/05/20 00:40:52;;;;;;;35.38;24.95;;;16.40;99.90;;;;;;5113151;28;20180;-71
2022/05/20 00:43:29;;;;;;;36.35;26.73;;;16.40;99.90;;;;;;5114523;28;20173;-71
2022/05/20 00:46:00;;;;;;;37.63;26.48;;;16.40;99.90;;;;;;5114606;28;20157;-71
2022/05/20 00:48:28;;;;;;;30.42;22.02;;;16.40;99.90;;;;;;5114270;28;20290;-71
2022/05/20 00:51:14;;;;;;;32.92;23.95;;;16.40;99.90;;;;;;5114536;28;20179;-71
2022/05/20 00:54:11;;;;;;;30.73;21.02;;;16.40;99.90;;;;;;5114616;28;20168;-71
2022/05/20 00:56:47;;;;;;;30.65;22.50;;;16.40;99.90;;;;;;5101719;28;20192;-71
2022/05/20 00:59:18;;;;;;;31.05;22.35;;;16.30;99.90;;;;;;5113011;28;20179;-71
2022/05/20 01:01:47;;;;;;;31.13;21.85;;;16.30;99.90;;;;;;5115074;28;20156;-71
2022/05/20 01:04:16;;;;;;;30.67;21.27;;;16.20;99.90;;;;;;5114432;28;20173;-71
2022/05/20 01:06:43;;;;;;;27.88;20.90;;;16.30;99.90;;;;;;5095961;28;20180;-71
2022/05/20 01:09:08;;;;;;;35.08;21.85;;;16.30;99.90;;;;;;5112704;28;20200;-71
2022/05/20 01:11:36;;;;;;;33.25;21.65;;;16.30;99.90;;;;;;5095702;28;20172;-71
2022/05/20 01:14:03;;;;;;;32.92;22.13;;;16.30;99.90;;;;;;5095776;28;20283;-71
2022/05/20 01:16:29;;;;;;;30.95;23.15;;;16.30;99.90;;;;;;5114646;28;20645;-71
2022/05/20 01:18:56;;;;;;;32.13;22.58;;;16.30;99.90;;;;;;5113928;28;20633;-71
2022/05/20 01:21:22;;;;;;;35.13;22.35;;;16.30;99.90;;;;;;5113976;28;20176;-71
2022/05/20 01:23:48;;;;;;;33.58;22.55;;;16.30;99.90;;;;;;5113885;28;20176;-71
2022/05/20 01:26:14;;;;;;;28.60;21.25;;;16.30;99.90;;;;;;5113758;28;20183;-71
2022/05/20 01:28:40;;;;;;;34.30;23.63;;;16.30;99.90;;;;;;5114066;28;20287;-71
2022/05/20 01:31:12;;;;;;;36.30;23.40;;;16.30;99.90;;;;;;5113899;28;20169;-71
2022/05/20 01:33:41;;;;;;;33.80;24.13;;;16.30;99.90;;;;;;5095682;28;20202;-71
2022/05/20 01:36:11;;;;;;;35.63;24.17;;;16.30;99.90;;;;;;5095521;28;20721;-71
2022/05/20 01:38:38;;;;;;;33.08;23.08;;;16.30;99.90;;;;;;5113851;28;20252;-71
2022/05/20 01:41:11;;;;;;;34.22;22.65;;;16.30;99.90;;;;;;5113448;28;20641;-71
2022/05/20 01:43:45;;;;;;;33.63;23.58;;;16.30;99.90;;;;;;5114058;28;20188;-71
2022/05/20 01:46:15;;;;;;;29.20;22.40;;;16.20;99.90;;;;;;5095417;28;20267;-71
2022/05/20 01:49:03;;;;;;;35.65;24.10;;;16.20;99.90;;;;;;5113586;28;20252;-71
2022/05/20 01:51:35;;;;;;;34.45;23.80;;;16.20;99.90;;;;;;5114086;28;20485;-71
2022/05/20 01:54:06;;;;;;;35.40;23.52;;;16.20;99.90;;;;;;5113964;28;20171;-71
2022/05/20 01:56:38;;;;;;;36.80;26.10;;;16.20;99.90;;;;;;5113664;28;20252;-71
2022/05/20 01:59:12;;;;;;;36.38;25.20;;;16.30;99.90;;;;;;5116890;28;20164;-71
2022/05/20 02:01:51;;;;;;;34.38;23.67;;;16.30;99.90;;;;;;5117902;28;20159;-71
2022/05/20 02:04:23;;;;;;;36.33;24.63;;;16.30;99.90;;;;;;5116705;28;20183;-71
2022/05/20 02:07:02;;;;;;;33.65;23.98;;;16.30;99.90;;;;;;5118314;28;20160;-71
2022/05/20 02:09:42;;;;;;;37.75;25.15;;;16.30;99.90;;;;;;5099376;28;20208;-71
2022/05/20 02:12:12;;;;;;;36.40;24.25;;;16.30;99.90;;;;;;5117672;28;20152;-71
2022/05/20 02:14:54;;;;;;;35.92;24.33;;;16.30;99.90;;;;;;5099338;28;20196;-71
2022/05/20 02:17:36;;;;;;;35.55;26.15;;;16.30;99.90;;;;;;5117493;28;20266;-71
2022/05/20 02:20:20;;;;;;;36.05;23.77;;;16.30;99.90;;;;;;5099031;28;20161;-71
2022/05/20 02:22:55;;;;;;;34.95;24.98;;;16.30;99.90;;;;;;5117092;28;20144;-71
2022/05/20 02:25:28;;;;;;;37.63;25.67;;;16.30;99.90;;;;;;5115943;28;20164;-72
2022/05/20 02:27:59;;;;;;;36.15;24.67;;;16.30;99.90;;;;;;5116670;28;20204;-71
2022/05/20 02:30:28;;;;;;;34.92;24.40;;;16.30;99.90;;;;;;5098624;28;20161;-71
2022/05/20 02:33:11;;;;;;;35.25;23.80;;;16.30;99.90;;;;;;5116910;28;20201;-71
2022/05/20 02:35:39;;;;;;;35.88;24.27;;;16.30;99.90;;;;;;5117198;28;20157;-71
2022/05/20 02:38:14;;;;;;;35.88;25.73;;;16.30;99.90;;;;;;5117009;28;20206;-71
2022/05/20 02:40:42;;;;;;;37.85;24.67;;;16.30;99.90;;;;;;5116886;28;20593;-71
2022/05/20 02:43:08;;;;;;;41.05;26.73;;;16.20;99.90;;;;;;5116514;28;20182;-71
2022/05/20 02:45:35;;;;;;;36.25;24.38;;;16.10;99.90;;;;;;5116602;28;20222;-71
2022/05/20 02:48:01;;;;;;;32.05;23.80;;;16.00;99.90;;;;;;5116484;28;20200;-71
2022/05/20 02:50:27;;;;;;;38.22;25.30;;;16.00;99.90;;;;;;5116767;28;20237;-71
2022/05/20 02:52:53;;;;;;;37.53;25.83;;;15.90;99.90;;;;;;5117053;28;20558;-71
2022/05/20 02:55:18;;;;;;;34.92;24.77;;;15.90;99.90;;;;;;5116719;28;20652;-71
2022/05/20 02:57:44;;;;;;;33.75;24.65;;;15.90;99.90;;;;;;5116628;28;20195;-71
2022/05/20 03:05:41;;;;;;;34.97;24.30;;;15.90;99.90;;;;;;5116639;28;20210;-71
2022/05/20 03:08:07;;;;;;;34.88;24.00;;;15.80;99.90;;;;;;5097638;28;20582;-71
2022/05/20 03:10:32;;;;;;;39.38;26.73;;;15.90;99.90;;;;;;5114804;28;20177;-71
2022/05/20 03:13:04;;;;;;;40.85;26.73;;;15.90;99.90;;;;;;5115646;28;20187;-71
2022/05/20 03:15:29;;;;;;;42.28;27.25;;;15.90;99.90;;;;;;5116062;28;20172;-71
2022/05/20 03:17:56;;;;;;;41.72;26.70;;;15.80;99.90;;;;;;5116118;28;20268;-71
2022/05/20 03:20:23;;;;;;;41.85;26.75;;;15.80;99.90;;;;;;5116052;28;20656;-71
2022/05/20 03:22:48;;;;;;;42.75;26.85;;;15.80;99.90;;;;;;5115965;28;20196;-71
2022/05/20 03:25:14;;;;;;;41.63;28.65;;;15.80;99.90;;;;;;5116093;28;20225;-71
2022/05/20 03:27:40;;;;;;;37.58;26.48;;;15.80;99.90;;;;;;5115438;28;20195;-71
2022/05/20 03:30:09;;;;;;;41.15;26.38;;;15.90;99.90;;;;;;5115926;28;20535;-71
2022/05/20 03:32:34;;;;;;;39.60;26.83;;;15.90;99.90;;;;;;5115882;28;20179;-71
2022/05/20 03:35:00;;;;;;;37.70;26.05;;;15.90;99.90;;;;;;5097452;28;20198;-71
2022/05/20 03:37:26;;;;;;;36.15;25.00;;;15.90;99.90;;;;;;5115633;28;20198;-71
2022/05/20 03:39:55;;;;;;;36.28;25.83;;;15.90;99.90;;;;;;5115631;28;20207;-71
2022/05/20 03:42:21;;;;;;;42.33;27.23;;;15.90;99.90;;;;;;5114049;28;20177;-71
2022/05/20 03:44:47;;;;;;;44.42;26.38;;;15.90;99.90;;;;;;5115976;28;20226;-71
2022/05/20 03:47:13;;;;;;;39.78;27.42;;;16.00;99.90;;;;;;5115638;28;20192;-71
2022/05/20 03:49:41;;;;;;;39.55;27.98;;;15.90;99.90;;;;;;5115775;28;20207;-71
2022/05/20 03:52:08;;;;;;;37.88;26.83;;;15.90;99.90;;;;;;5116365;28;20539;-71
2022/05/20 03:54:34;;;;;;;37.72;26.55;;;15.90;99.90;;;;;;5097443;28;20179;-71
2022/05/20 03:57:02;;;;;;;36.92;25.40;;;15.90;99.90;;;;;;5115089;28;20188;-71
2022/05/20 03:59:28;;;;;;;37.60;25.80;;;16.00;99.90;;;;;;5115406;28;20698;-71
2022/05/20 04:01:57;;;;;;;38.08;26.70;;;16.00;99.90;;;;;;5115184;28;20180;-71
2022/05/20 04:04:27;;;;;;;40.25;27.63;;;16.00;99.90;;;;;;5115215;28;20248;-71
2022/05/20 04:06:52;;;;;;;38.33;25.63;;;15.90;99.90;;;;;;5096810;28;20213;-71
2022/05/20 04:09:18;;;;;;;39.95;27.02;;;15.90;99.90;;;;;;5096997;28;20283;-70
2022/05/20 04:11:44;;;;;;;40.25;26.80;;;15.90;99.90;;;;;;5115121;28;20161;-71
2022/05/20 04:14:11;;;;;;;40.75;28.40;;;15.90;99.90;;;;;;5114861;28;20253;-71
2022/05/20 04:16:37;;;;;;;37.83;26.85;;;15.90;99.90;;;;;;5096648;28;20183;-71
2022/05/20 04:19:03;;;;;;;39.75;28.65;;;15.90;99.90;;;;;;5097033;28;20641;-71
2022/05/20 04:21:29;;;;;;;38.10;26.15;;;15.90;99.90;;;;;;5114547;28;20264;-71
2022/05/20 04:23:54;;;;;;;37.63;27.50;;;15.90;99.90;;;;;;5114902;28;20263;-71
2022/05/20 04:26:20;;;;;;;40.47;26.85;;;15.90;99.90;;;;;;5114826;28;20255;-71
2022/05/20 04:28:46;;;;;;;40.67;27.58;;;15.90;99.90;;;;;;5115535;28;20192;-71
2022/05/20 04:31:12;;;;;;;42.63;27.80;;;15.90;99.90;;;;;;5096661;28;20176;-71
2022/05/20 04:34:15;;;;;;;43.60;28.92;;;15.80;99.90;;;;;;5114686;28;20565;-71
2022/05/20 04:36:41;;;;;;;39.33;28.05;;;15.90;99.90;;;;;;5114538;28;20183;-71
2022/05/20 04:39:06;;;;;;;45.95;28.58;;;15.80;99.90;;;;;;5114681;28;20180;-71
2022/05/20 04:47:03;;;;;;;43.25;29.17;;;15.90;99.90;;;;;;5114824;28;20199;-71
2022/05/20 04:49:31;;;;;;;42.40;27.15;;;15.80;99.90;;;;;;5096272;28;20196;-71
2022/05/20 04:51:57;;;;;;;40.28;28.27;;;15.80;99.90;;;;;;5114719;28;20164;-71
2022/05/20 04:57:09;;;;;;;42.50;29.70;;;15.80;99.90;;;;;;5115929;28;20199;-71
2022/05/20 04:59:38;;;;;;;44.35;29.58;;;15.80;99.90;;;;;;5116539;28;20172;-71
2022/05/20 05:02:04;;;;;;;42.40;29.95;;;15.90;99.90;;;;;;5115851;28;20195;-72
2022/05/20 05:04:30;;;;;;;48.47;28.13;;;15.90;99.90;;;;;;5115539;28;20548;-71
2022/05/20 05:06:56;;;;;;;41.92;29.60;;;16.00;99.90;;;;;;5096854;28;20271;-72
2022/05/20 05:09:22;;;;;;;41.58;28.95;;;16.00;99.90;;;;;;5115258;28;20675;-71
2022/05/20 05:11:49;;;;;;;43.88;29.75;;;16.10;99.90;;;;;;5096161;28;20184;-72
2022/05/20 05:14:15;;;;;;;44.30;29.33;;;16.10;99.90;;;;;;5096309;28;20195;-71
2022/05/20 05:16:41;;;;;;;44.63;29.45;;;16.10;99.90;;;;;;5114511;28;20165;-72
2022/05/20 05:19:07;;;;;;;39.28;27.80;;;16.20;99.90;;;;;;5114198;28;20180;-72
2022/05/20 05:21:34;;;;;;;36.90;26.58;;;16.20;99.90;;;;;;5114572;28;20229;-72
2022/05/20 05:24:02;;;;;;;43.95;27.58;;;16.30;99.90;;;;;;5114276;28;20242;-72
2022/05/20 05:26:31;;;;;;;37.50;26.48;;;16.40;99.90;;;;;;5095804;28;20180;-72
2022/05/20 05:28:57;;;;;;;39.90;27.48;;;16.50;99.90;;;;;;5113796;28;20287;-72
2022/05/20 05:31:23;;;;;;;44.47;29.70;;;16.50;99.90;;;;;;5095872;28;20615;-72
2022/05/20 05:33:50;;;;;;;45.67;31.27;;;16.60;99.90;;;;;;5116571;28;20263;-72
2022/05/20 05:36:17;;;;;;;41.95;29.25;;;16.60;99.90;;;;;;5118183;28;20663;-72
2022/05/20 05:38:44;;;;;;;43.53;29.45;;;16.60;99.90;;;;;;5118173;28;20208;-72
2022/05/20 05:41:10;;;;;;;38.13;26.55;;;16.60;99.90;;;;;;5116626;28;20180;-72
2022/05/20 05:43:36;;;;;;;39.75;28.27;;;16.70;99.90;;;;;;5117930;28;20251;-72
2022/05/20 05:46:02;;;;;;;37.10;26.73;;;16.70;99.90;;;;;;5118096;28;20187;-72
2022/05/20 05:48:28;;;;;;;36.40;26.13;;;16.80;99.90;;;;;;5117790;28;20204;-72
2022/05/20 05:50:55;;;;;;;38.67;26.52;;;16.90;99.90;;;;;;5118200;28;20645;-72
2022/05/20 05:53:22;;;;;;;38.78;27.65;;;16.90;99.90;;;;;;5117858;28;20169;-72
2022/05/20 05:55:53;;;;;;;36.63;26.15;;;16.90;99.90;;;;;;5117850;28;20632;-72
2022/05/20 05:58:19;;;;;;;30.63;23.45;;;16.90;99.90;;;;;;5117581;28;20199;-72
2022/05/20 06:00:45;;;;;;;28.95;21.25;;;16.90;99.90;;;;;;5117961;28;20181;-72
2022/05/20 06:03:11;;;;;;;31.52;21.27;;;17.00;99.90;;;;;;5099531;28;20644;-72
2022/05/20 06:05:37;;;;;;;30.83;19.40;;;17.00;99.90;;;;;;5117536;28;20168;-72
2022/05/20 06:08:03;;;;;;;28.33;19.30;;;17.10;99.90;;;;;;5099214;28;20275;-72
2022/05/20 06:10:29;;;;;;;21.92;14.80;;;17.10;99.90;;;;;;5117700;28;20175;-72
2022/05/20 06:12:55;;;;;;;22.88;16.67;;;17.00;99.90;;;;;;5098932;28;20190;-72
2022/05/20 06:15:22;;;;;;;20.38;14.40;;;17.00;99.90;;;;;;5118126;28;20160;-72
2022/05/20 06:17:49;;;;;;;19.30;14.88;;;17.10;99.90;;;;;;5117537;28;20189;-72
2022/05/20 06:20:16;;;;;;;20.08;13.45;;;17.30;99.90;;;;;;5119570;28;20164;-72
2022/05/20 06:22:42;;;;;;;17.85;12.93;;;17.50;99.90;;;;;;5100483;28;20187;-72
2022/05/20 06:25:09;;;;;;;24.90;17.35;;;17.50;99.90;;;;;;5099561;28;20176;-72
2022/05/20 06:27:35;;;;;;;19.60;14.60;;;17.50;99.90;;;;;;5115922;28;20284;-72
2022/05/20 06:30:03;;;;;;;24.05;17.95;;;17.60;99.90;;;;;;5117457;28;20164;-72
2022/05/20 06:32:29;;;;;;;24.80;17.48;;;17.60;99.90;;;;;;5116930;28;20248;-72
2022/05/20 06:40:23;;;;;;;23.83;16.85;;;17.70;99.90;;;;;;5117431;28;20571;-72
2022/05/20 06:42:49;;;;;;;25.55;18.67;;;17.70;99.90;;;;;;5098432;28;20172;-72
2022/05/20 06:45:15;;;;;;;27.05;18.38;;;17.70;99.90;;;;;;5116585;28;20221;-72
2022/05/20 06:47:42;;;;;;;30.42;20.45;;;17.80;99.90;;;;;;5116605;28;20193;-72
2022/05/20 06:50:10;;;;;;;26.63;18.67;;;17.80;99.90;;;;;;5116732;28;20233;-72
2022/05/20 06:52:36;;;;;;;31.90;21.48;;;17.90;99.90;;;;;;5116510;28;20172;-72
2022/05/20 06:55:01;;;;;;;23.63;17.92;;;17.90;99.90;;;;;;5116545;28;20751;-72
2022/05/20 06:57:27;;;;;;;26.80;18.80;;;18.00;99.90;;;;;;5116521;28;20661;-72
2022/05/20 06:59:53;;;;;;;31.65;22.38;;;18.10;99.90;;;;;;5116799;28;20689;-72
2022/05/20 07:02:19;;;;;;;37.17;25.20;;;18.10;99.90;;;;;;5098392;28;20551;-72
2022/05/20 07:04:45;;;;;;;39.03;25.58;;;18.10;99.90;;;;;;5098024;28;20204;-72
2022/05/20 07:07:11;;;;;;;27.02;21.65;;;18.10;99.90;;;;;;5097941;28;20228;-72
2022/05/20 07:09:37;;;;;;;34.72;23.52;;;18.20;99.90;;;;;;5116035;28;20207;-72
2022/05/20 07:12:04;;;;;;;31.33;22.98;;;18.20;99.90;;;;;;5115977;28;20165;-72
2022/05/20 07:14:30;;;;;;;36.90;26.58;;;18.30;99.90;;;;;;5115775;28;20271;-72
2022/05/20 07:16:56;;;;;;;36.17;23.70;;;18.40;99.90;;;;;;5116206;28;20575;-72
2022/05/20 07:19:22;;;;;;;39.30;27.50;;;18.50;99.90;;;;;;5115807;28;20273;-72
2022/05/20 07:21:48;;;;;;;30.38;21.65;;;18.50;99.90;;;;;;5116000;28;20176;-72
2022/05/20 07:24:14;;;;;;;31.15;22.98;;;18.50;99.90;;;;;;5097793;28;20180;-72
2022/05/20 07:26:40;;;;;;;37.13;26.52;;;18.60;99.90;;;;;;5115948;28;20665;-72
2022/05/20 07:29:08;;;;;;;37.90;27.38;;;18.60;99.90;;;;;;5115473;28;20199;-72
2022/05/20 07:31:34;;;;;;;32.50;23.38;;;18.60;99.90;;;;;;5114539;28;20180;-72
2022/05/20 07:34:01;;;;;;;33.85;22.40;;;18.60;99.90;;;;;;5097446;28;20172;-72
2022/05/20 07:36:27;;;;;;;26.13;19.50;;;18.60;99.90;;;;;;5115611;28;20510;-72
2022/05/20 07:38:53;;;;;;;33.92;22.60;;;18.70;99.90;;;;;;5115388;28;20207;-72
2022/05/20 07:41:23;;;;;;;29.00;21.67;;;18.70;99.90;;;;;;5097208;28;20204;-72
2022/05/20 07:43:49;;;;;;;27.05;17.70;;;18.80;99.90;;;;;;5097288;28;20184;-72
2022/05/20 07:46:15;;;;;;;27.92;17.92;;;18.80;99.90;;;;;;5115874;28;20230;-72
2022/05/20 07:48:41;;;;;;;28.95;18.88;;;18.80;99.90;;;;;;5115921;28;20204;-73
2022/05/20 07:51:10;;;;;;;28.48;19.10;;;18.90;99.90;;;;;;5097336;28;20168;-72
2022/05/20 07:53:40;;;;;;;29.27;20.33;;;18.90;99.90;;;;;;5115347;28;20528;-72
2022/05/20 07:56:12;;;;;;;28.13;20.00;;;19.00;99.90;;;;;;5114826;28;20157;-72
2022/05/20 07:58:45;;;;;;;28.42;20.77;;;19.10;99.90;;;;;;5114898;28;20192;-72
2022/05/20 08:01:11;;;;;;;31.60;20.13;;;19.20;99.90;;;;;;5115268;28;20157;-72
2022/05/20 08:06:24;;;;;;;29.77;19.92;;;19.40;99.90;;;;;;5115127;28;20275;-72
2022/05/20 08:08:50;;;;;;;30.27;21.58;;;19.40;99.90;;;;;;5114905;28;20287;-72
2022/05/20 08:11:16;;;;;;;36.15;23.75;;;19.50;99.90;;;;;;5115327;28;20168;-72
2022/05/20 08:13:42;;;;;;;33.35;24.23;;;19.50;99.90;;;;;;5114796;28;20206;-73
2022/05/20 08:16:08;;;;;;;34.40;23.38;;;19.50;99.90;;;;;;5115344;28;20520;-73
2022/05/20 08:18:33;;;;;;;36.83;23.85;;;19.60;99.90;;;;;;5114945;28;20195;-72
2022/05/20 08:20:59;;;;;;;34.22;23.02;;;19.70;99.90;;;;;;5115102;28;20179;-73
2022/05/20 08:23:26;;;;;;;37.83;23.33;;;19.70;99.90;;;;;;5114773;28;20203;-73
2022/05/20 08:25:52;;;;;;;30.77;20.77;;;19.90;99.90;;;;;;5114918;28;20695;-73
2022/05/20 08:28:18;;;;;;;29.95;21.13;;;19.90;99.90;;;;;;5114594;28;20294;-73
2022/05/20 08:30:45;;;;;;;32.00;21.92;;;20.00;99.90;;;;;;5114839;28;20648;-73
2022/05/20 08:33:11;;;;;;;33.53;20.52;;;20.10;99.90;;;;;;5114633;28;20175;-72
2022/05/20 08:35:37;;;;;;;32.75;22.23;;;20.20;99.90;;;;;;5115052;28;20247;-73
2022/05/20 08:38:04;;;;;;;29.65;20.33;;;20.30;99.90;;;;;;5114479;28;20204;-73
2022/05/20 08:40:42;;;;;;;31.45;21.02;;;20.40;99.90;;;;;;5113410;28;20176;-73
2022/05/20 08:43:09;;;;;;;38.03;23.83;;;20.60;99.90;;;;;;5114743;28;20171;-73
2022/05/20 08:45:35;;;;;;;28.65;21.23;;;20.70;99.90;;;;;;5114541;28;20200;-73
2022/05/20 08:48:05;;;;;;;26.25;17.67;;;20.80;99.90;;;;;;5114819;28;20250;-73
2022/05/20 08:50:39;;;;;;;36.63;21.80;;;21.10;99.90;;;;;;5114922;28;20172;-73
2022/05/20 08:53:12;;;;;;;32.90;21.50;;;21.40;99.90;;;;;;5096220;28;20167;-73
2022/05/20 08:55:37;;;;;;;28.98;20.77;;;21.50;99.90;;;;;;5114318;28;20152;-73
2022/05/20 08:58:05;;;;;;;30.95;20.38;;;21.60;99.90;;;;;;5114127;28;20203;-73
2022/05/20 09:00:31;;;;;;;29.70;19.60;;;21.80;99.90;;;;;;5114423;28;20242;-73
2022/05/20 09:02:57;;;;;;;27.15;18.50;;;21.90;99.90;;;;;;5114317;28;20209;-73
2022/05/20 09:05:22;;;;;;;26.50;18.30;;;21.80;99.90;;;;;;5096164;28;20256;-73
2022/05/20 09:08:14;;;;;;;30.05;20.08;;;21.90;99.90;;;;;;5114127;28;20208;-73
2022/05/20 09:10:47;;;;;;;29.48;20.75;;;21.80;99.90;;;;;;5105660;28;20181;-73
2022/05/20 09:13:21;;;;;;;32.33;20.08;;;21.70;99.90;;;;;;5113981;28;20190;-73
2022/05/20 09:16:02;;;;;;;22.95;16.10;;;21.60;99.90;;;;;;5096102;28;20175;-73
2022/05/20 09:18:43;;;;;;;32.30;20.70;;;21.60;99.90;;;;;;5114524;28;20674;-74
2022/05/20 09:21:26;;;;;;;28.08;19.05;;;21.50;99.90;;;;;;5114206;28;20176;-73
2022/05/20 09:23:55;;;;;;;26.60;17.48;;;21.50;99.90;;;;;;5095964;28;20698;-73
2022/05/20 09:26:30;;;;;;;32.65;21.70;;;21.30;99.90;;;;;;5114371;28;20180;-73
2022/05/20 09:29:07;;;;;;;27.45;17.27;;;21.20;99.90;;;;;;5113735;28;20585;-73
2022/05/20 09:31:48;;;;;;;22.48;16.15;;;21.20;99.90;;;;;;5095839;28;20168;-73
2022/05/20 09:34:29;;;;;;;21.90;16.23;;;21.30;99.90;;;;;;5095851;28;20169;-74
2022/05/20 09:37:01;;;;;;;33.22;21.48;;;21.50;99.90;;;;;;5114198;28;20161;-73
2022/05/20 09:39:37;;;;;;;30.65;21.35;;;21.60;99.90;;;;;;5096311;28;20184;-74
2022/05/20 09:42:22;;;;;;;29.45;20.73;;;21.60;99.90;;;;;;5113105;28;20729;-74
2022/05/20 09:44:51;;;;;;;30.45;21.38;;;21.70;99.90;;;;;;5113978;28;20531;-72
2022/05/20 09:47:29;;;;;;;32.50;21.80;;;21.60;99.90;;;;;;5113111;28;20662;-73
2022/05/20 09:49:58;;;;;;;24.95;18.13;;;21.90;99.90;;;;;;5095726;28;20290;-73
2022/05/20 09:52:30;;;;;;;25.13;18.05;;;22.10;99.90;;;;;;5114450;28;20169;-73
2022/05/20 09:55:13;;;;;;;36.80;23.98;;;22.20;99.90;;;;;;5114458;28;20207;-73
2022/05/20 09:57:45;;;;;;;31.95;24.58;;;22.40;99.90;;;;;;5096335;28;20204;-73
2022/05/20 10:00:21;;;;;;;27.50;20.52;;;22.50;99.90;;;;;;5115095;28;20157;-73
2022/05/20 10:02:56;;;;;;;33.25;22.90;;;22.40;99.90;;;;;;5114332;28;20188;-72
2022/05/20 10:05:34;;;;;;;36.05;23.17;;;22.40;99.90;;;;;;5095562;28;20179;-72
2022/05/20 10:08:02;;;;;;;35.70;23.73;;;22.30;99.90;;;;;;5113320;28;20660;-72
2022/05/20 10:10:46;;;;;;;33.28;23.38;;;22.20;99.90;;;;;;5095477;28;20633;-72
2022/05/20 10:13:43;;;;;;;35.58;24.08;;;22.10;99.90;;;;;;5113457;28;20180;-72
2022/05/20 10:16:31;;;;;;;29.73;19.67;;;22.00;99.90;;;;;;5095352;28;20640;-72
2022/05/20 10:19:13;;;;;;;25.35;17.60;;;22.00;99.90;;;;;;5096250;28;20208;-72
2022/05/20 10:21:53;;;;;;;35.40;23.15;;;22.10;99.90;;;;;;5117394;28;20167;-72
2022/05/20 10:24:45;;;;;;;25.20;16.90;;;22.20;99.90;;;;;;5098897;28;20640;-72
2022/05/20 10:27:29;;;;;;;29.23;21.08;;;22.60;99.90;;;;;;5117099;28;20340;-71
2022/05/20 10:32:49;;;;;;;31.58;21.50;;;23.20;99.90;;;;;;5117464;28;20160;-72
2022/05/20 10:35:18;;;;;;;27.75;20.90;;;23.50;99.90;;;;;;5117020;28;20192;-71
2022/05/20 10:38:27;;;;;;;32.92;23.52;;;23.70;99.90;;;;;;5116889;28;20199;-72
2022/05/20 10:41:08;;;;;;;30.33;21.80;;;23.80;99.90;;;;;;5116995;28;20186;-72
2022/05/20 10:49:50;;;;;;;30.70;22.00;;;23.50;99.90;;;;;;5116828;28;20226;-72
2022/05/20 10:52:30;;;;;;;28.48;20.40;;;23.30;99.90;;;;;;5116961;28;20623;-72
2022/05/20 10:55:05;;;;;;;34.22;24.20;;;23.40;99.90;;;;;;5115387;28;20184;-72
2022/05/20 10:57:38;;;;;;;32.05;21.65;;;23.80;99.90;;;;;;5098599;28;20219;-72
2022/05/20 11:00:19;;;;;;;31.95;24.92;;;24.10;99.90;;;;;;5098316;28;20599;-72
2022/05/20 11:03:19;;;;;;;29.58;23.55;;;24.40;99.90;;;;;;5117009;28;20205;-72
2022/05/20 11:06:08;;;;;;;37.80;25.67;;;24.60;99.90;;;;;;5116364;28;20180;-72
2022/05/20 11:09:01;;;;;;;31.33;21.25;;;24.60;99.90;;;;;;5116615;28;20208;-72
2022/05/20 11:11:54;;;;;;;32.05;23.75;;;24.60;99.90;;;;;;5116865;28;20256;-72
2022/05/20 11:14:44;;;;;;;23.30;17.45;;;24.80;99.90;;;;;;5097934;28;20245;-72
2022/05/20 11:17:25;;;;;;;26.02;19.45;;;25.20;99.90;;;;;;5116752;28;20536;-72
2022/05/20 11:20:09;;;;;;;31.63;22.65;;;25.60;99.90;;;;;;5098047;28;20205;-72
2022/05/20 11:22:37;;;;;;;31.88;24.38;;;25.60;99.90;;;;;;5116680;28;20168;-73
2022/05/20 11:25:33;;;;;;;28.58;20.00;;;25.50;99.90;;;;;;5098257;28;20188;-72
2022/05/20 11:28:23;;;;;;;35.03;24.55;;;25.50;99.90;;;;;;5115758;28;20199;-72
2022/05/20 11:30:57;;;;;;;25.83;19.25;;;25.40;99.90;;;;;;5114983;28;20157;-72
2022/05/20 11:33:49;;;;;;;33.80;24.63;;;25.40;99.90;;;;;;5116701;28;20306;-72
2022/05/20 11:36:29;;;;;;;31.60;21.67;;;25.40;99.90;;;;;;5115922;28;20164;-72
2022/05/20 11:39:26;;;;;;;30.27;23.08;;;25.50;99.90;;;;;;5116050;28;20241;-72
2022/05/20 11:42:14;;;;;;;32.85;23.33;;;25.70;99.90;;;;;;5115984;28;20168;-72
2022/05/20 11:45:10;;;;;;;29.70;22.95;;;26.10;99.90;;;;;;5097376;28;20165;-72
2022/05/20 11:47:54;;;;;;;30.63;22.67;;;26.70;99.90;;;;;;5116336;28;20188;-72
2022/05/20 11:50:51;;;;;;;32.20;23.55;;;27.00;99.90;;;;;;5097770;28;20226;-72
2022/05/20 11:53:21;;;;;;;27.17;20.92;;;27.00;99.90;;;;;;5115877;28;20221;-72
2022/05/20 11:55:58;;;;;;;34.47;26.27;;;26.90;99.90;;;;;;5115749;28;20209;-72
2022/05/20 11:58:44;;;;;;;33.45;24.95;;;26.70;99.90;;;;;;5115716;28;20192;-72
2022/05/20 12:01:12;;;;;;;28.10;20.80;;;26.70;99.90;;;;;;5116355;28;20180;-72
2022/05/20 12:06:27;;;;;;;32.83;22.17;;;26.70;99.90;;;;;;5116192;28;20178;-72
2022/05/20 12:08:58;;;;;;;22.55;17.65;;;26.70;99.90;;;;;;5116156;28;20239;-71
2022/05/20 12:11:37;;;;;;;31.02;21.25;;;26.90;99.90;;;;;;5099541;28;20184;-72
2022/05/20 12:14:05;;;;;;;34.10;25.23;;;27.10;99.90;;;;;;5117111;28;20184;-72
2022/05/20 12:16:33;;;;;;;35.03;25.40;;;27.10;99.90;;;;;;5116325;28;20161;-72
2022/05/20 12:25:36;;;;;;;23.35;16.52;;;26.40;99.90;;;;;;5116670;28;20191;-72
2022/05/20 12:28:27;;;;;;;33.47;22.50;;;26.30;99.90;;;;;;5116391;28;20661;-73
2022/05/20 12:31:24;;;;;;;26.90;19.33;;;26.20;99.90;;;;;;5097352;28;20172;-72
2022/05/20 12:33:59;;;;;;;32.67;23.83;;;26.40;99.90;;;;;;5113639;28;20238;-72
2022/05/20 12:36:27;;;;;;;28.45;20.95;;;26.70;99.90;;;;;;5096636;28;20175;-71
2022/05/20 12:39:16;;;;;;;25.88;17.83;;;27.10;99.90;;;;;;5096603;28;20574;-72
2022/05/20 12:41:53;;;;;;;30.35;22.08;;;27.40;99.90;;;;;;5113551;28;20207;-72
2022/05/20 12:44:22;;;;;;;34.03;24.73;;;27.60;99.90;;;;;;5096755;28;20180;-72
2022/05/20 12:47:02;;;;;;;34.40;23.65;;;27.50;99.90;;;;;;5115102;28;20173;-72
2022/05/20 12:49:47;;;;;;;32.90;24.40;;;27.30;99.90;;;;;;5114350;28;20664;-72
2022/05/20 12:52:12;;;;;;;31.23;22.33;;;26.90;99.90;;;;;;5096838;28;20199;-72
2022/05/20 12:54:43;;;;;;;29.30;20.70;;;26.50;99.90;;;;;;5115377;28;20165;-72
2022/05/20 12:57:16;;;;;;;33.10;23.63;;;26.10;99.90;;;;;;5115327;28;20188;-72
2022/05/20 12:59:42;;;;;;;33.67;23.20;;;25.60;99.90;;;;;;5115138;28;20246;-71
2022/05/20 13:02:16;;;;;;;23.63;18.63;;;25.20;99.90;;;;;;5115680;28;20161;-71
2022/05/20 13:04:49;;;;;;;26.73;18.20;;;24.90;99.90;;;;;;5115126;28;20161;-71
2022/05/20 13:07:17;;;;;;;23.67;18.70;;;24.60;99.90;;;;;;5097092;28;20196;-72
2022/05/20 13:09:45;;;;;;;23.58;18.27;;;24.30;99.90;;;;;;5115905;28;20196;-72
2022/05/20 13:12:18;;;;;;;31.15;22.83;;;24.10;99.90;;;;;;5115837;28;20245;-72
2022/05/20 13:14:55;;;;;;;27.27;19.02;;;23.90;99.90;;;;;;5113917;28;20196;-72
2022/05/20 13:17:22;;;;;;;40.15;27.67;;;23.60;99.90;;;;;;5115698;28;20200;-72
2022/05/20 13:19:51;;;;;;;36.85;24.80;;;23.40;99.90;;;;;;5097011;28;20176;-72
2022/05/20 13:22:23;;;;;;;41.00;28.20;;;23.20;99.90;;;;;;5097209;28;20172;-72
2022/05/20 13:24:58;;;;;;;35.78;22.48;;;23.00;99.90;;;;;;5115078;28;20160;-72
2022/05/20 13:27:25;;;;;;;40.92;26.70;;;22.90;99.90;;;;;;5113325;28;20751;-72
2022/05/20 13:29:52;;;;;;;38.38;28.75;;;22.60;99.90;;;;;;5112614;28;20291;-72